RYR84KL EGGW-LEMI
Flight info
| Callsign | RYR84KL |
|---|---|
| Flight time | 2h 15m |
| Altitude | 35000 |
| Route | RODNI N27 ICTAM Q63 CPT N859 VAPID UN859 BENAR/N0427F330 UN859 SOPIL DCT BALAN DCT LMG/N0436F370 DCT PIMQO DCT AGN DCT ANETO DCT POSSY DCT XIMPE DCT RIMES N860 VLC L34 ALT |
| Aircraft | B738/M-SDE3FGILRWY/SB1 |
Departure
| Time | 2026-04-23 14:09 |
|---|---|
| Airport | London Luton Airport (EGGW) |
Arrival
| Time | 2026-04-23 16:25 |
|---|---|
| Airport | Region of Murcia International Airport (LEMI) |
| Time | Latitude | Longitude | Altitude | Speed | Heading |
|---|---|---|---|---|---|
| 2026-04-23 13:32 | 51.87860 | -0.37891 | 522 ft | 0 kts | 46° |
| 2026-04-23 13:56 | 51.87857 | -0.37895 | 522 ft | 2 kts | 46° |
| 2026-04-23 13:56 | 51.87845 | -0.37917 | 522 ft | 3 kts | 46° |
| 2026-04-23 13:57 | 51.87831 | -0.37938 | 522 ft | 3 kts | 56° |
| 2026-04-23 13:57 | 51.87826 | -0.37960 | 522 ft | 3 kts | 112° |
| 2026-04-23 13:57 | 51.87836 | -0.37979 | 522 ft | 2 kts | 149° |
| 2026-04-23 13:57 | 51.87846 | -0.37989 | 522 ft | 3 kts | 150° |
| 2026-04-23 13:58 | 51.87855 | -0.37998 | 522 ft | 0 kts | 150° |
| 2026-04-23 14:01 | 51.87854 | -0.37997 | 522 ft | 1 kts | 150° |
| 2026-04-23 14:01 | 51.87840 | -0.37982 | 522 ft | 4 kts | 147° |
| 2026-04-23 14:01 | 51.87809 | -0.37934 | 522 ft | 8 kts | 126° |
| 2026-04-23 14:02 | 51.87779 | -0.37842 | 522 ft | 11 kts | 116° |
| 2026-04-23 14:02 | 51.87742 | -0.37718 | 522 ft | 14 kts | 115° |
| 2026-04-23 14:02 | 51.87696 | -0.37556 | 519 ft | 14 kts | 117° |
| 2026-04-23 14:02 | 51.87629 | -0.37466 | 522 ft | 13 kts | 160° |
| 2026-04-23 14:03 | 51.87543 | -0.37470 | 521 ft | 12 kts | 201° |
| 2026-04-23 14:03 | 51.87495 | -0.37574 | 522 ft | 12 kts | 254° |
| 2026-04-23 14:03 | 51.87475 | -0.37706 | 522 ft | 12 kts | 257° |
| 2026-04-23 14:03 | 51.87448 | -0.37858 | 522 ft | 15 kts | 254° |
| 2026-04-23 14:04 | 51.87429 | -0.37967 | 523 ft | 4 kts | 252° |
| 2026-04-23 14:04 | 51.87418 | -0.38004 | 523 ft | 4 kts | 237° |
| 2026-04-23 14:04 | 51.87382 | -0.38055 | 522 ft | 9 kts | 209° |
| 2026-04-23 14:04 | 51.87361 | -0.38073 | 522 ft | 0 kts | 206° |
| 2026-04-23 14:08 | 51.87359 | -0.38074 | 522 ft | 2 kts | 206° |
| 2026-04-23 14:08 | 51.87333 | -0.38095 | 521 ft | 7 kts | 206° |
| 2026-04-23 14:08 | 51.87279 | -0.38109 | 522 ft | 9 kts | 162° |
| 2026-04-23 14:08 | 51.87258 | -0.38031 | 523 ft | 9 kts | 72° |
| 2026-04-23 14:09 | 51.87285 | -0.37891 | 523 ft | 25 kts | 72° |
| 2026-04-23 14:09 | 51.87389 | -0.37281 | 520 ft | 92 kts | 75° |
| 2026-04-23 14:09 | 51.87625 | -0.35957 | 544 ft | 149 kts | 71° |
| 2026-04-23 14:09 | 51.87940 | -0.34278 | 1192 ft | 159 kts | 73° |
| 2026-04-23 14:10 | 51.88247 | -0.32588 | 2195 ft | 156 kts | 76° |
| 2026-04-23 14:10 | 51.88529 | -0.30878 | 2999 ft | 163 kts | 77° |
| 2026-04-23 14:10 | 51.88857 | -0.28924 | 3418 ft | 195 kts | 76° |
| 2026-04-23 14:10 | 51.89225 | -0.26645 | 3640 ft | 220 kts | 86° |
| 2026-04-23 14:11 | 51.88850 | -0.24178 | 3915 ft | 243 kts | 123° |
| 2026-04-23 14:11 | 51.87523 | -0.22434 | 3891 ft | 254 kts | 158° |
| 2026-04-23 14:11 | 51.85780 | -0.22396 | 3980 ft | 259 kts | 195° |
| 2026-04-23 14:11 | 51.84319 | -0.24062 | 3985 ft | 269 kts | 231° |
| 2026-04-23 14:12 | 51.83639 | -0.26881 | 4022 ft | 275 kts | 258° |
| 2026-04-23 14:12 | 51.83352 | -0.29951 | 4012 ft | 278 kts | 260° |
| 2026-04-23 14:12 | 51.83008 | -0.33034 | 4036 ft | 280 kts | 256° |
| 2026-04-23 14:12 | 51.82582 | -0.36113 | 4006 ft | 280 kts | 255° |
| 2026-04-23 14:13 | 51.82111 | -0.39171 | 3975 ft | 280 kts | 253° |
| 2026-04-23 14:13 | 51.81622 | -0.42206 | 3987 ft | 279 kts | 254° |
| 2026-04-23 14:13 | 51.81133 | -0.45252 | 3992 ft | 280 kts | 254° |
| 2026-04-23 14:13 | 51.80673 | -0.48308 | 3972 ft | 280 kts | 254° |
| 2026-04-23 14:14 | 51.80224 | -0.51317 | 3984 ft | 280 kts | 255° |
| 2026-04-23 14:14 | 51.79768 | -0.54350 | 4075 ft | 278 kts | 254° |
| 2026-04-23 14:14 | 51.79309 | -0.57400 | 4493 ft | 282 kts | 254° |
| 2026-04-23 14:14 | 51.78834 | -0.60486 | 5537 ft | 281 kts | 253° |
| 2026-04-23 14:15 | 51.78360 | -0.63540 | 6506 ft | 281 kts | 254° |
| 2026-04-23 14:15 | 51.77889 | -0.66605 | 6894 ft | 282 kts | 254° |
| 2026-04-23 14:15 | 51.77415 | -0.69699 | 7324 ft | 286 kts | 255° |
| 2026-04-23 14:16 | 51.76382 | -0.76383 | 7427 ft | 286 kts | 255° |
| 2026-04-23 14:16 | 51.75706 | -0.79315 | 7410 ft | 281 kts | 234° |
| 2026-04-23 14:16 | 51.74443 | -0.81667 | 7426 ft | 280 kts | 222° |
| 2026-04-23 14:16 | 51.73062 | -0.83894 | 7438 ft | 281 kts | 222° |
| 2026-04-23 14:17 | 51.71681 | -0.86113 | 7433 ft | 280 kts | 222° |
| 2026-04-23 14:17 | 51.70292 | -0.88333 | 7426 ft | 283 kts | 222° |
| 2026-04-23 14:17 | 51.68877 | -0.90582 | 7679 ft | 290 kts | 221° |
| 2026-04-23 14:17 | 51.67437 | -0.92879 | 8543 ft | 290 kts | 222° |
| 2026-04-23 14:18 | 51.66004 | -0.95170 | 9395 ft | 294 kts | 223° |
| 2026-04-23 14:18 | 51.64530 | -0.97526 | 10166 ft | 299 kts | 223° |
| 2026-04-23 14:18 | 51.63070 | -0.99859 | 10924 ft | 304 kts | 223° |
| 2026-04-23 14:18 | 51.61508 | -1.02346 | 11182 ft | 328 kts | 223° |
| 2026-04-23 14:19 | 51.59838 | -1.04993 | 11555 ft | 345 kts | 223° |
| 2026-04-23 14:19 | 51.58113 | -1.07729 | 12179 ft | 353 kts | 223° |
| 2026-04-23 14:19 | 51.56347 | -1.10527 | 12958 ft | 355 kts | 223° |
| 2026-04-23 14:19 | 51.54577 | -1.13328 | 13724 ft | 360 kts | 222° |
| 2026-04-23 14:20 | 51.52782 | -1.16164 | 14436 ft | 365 kts | 222° |
| 2026-04-23 14:20 | 51.50762 | -1.18607 | 15069 ft | 365 kts | 203° |
| 2026-04-23 14:20 | 51.48360 | -1.19763 | 15761 ft | 361 kts | 183° |
| 2026-04-23 14:20 | 51.45859 | -1.19708 | 16441 ft | 359 kts | 167° |
| 2026-04-23 14:21 | 51.43527 | -1.18513 | 17071 ft | 358 kts | 152° |
| 2026-04-23 14:21 | 51.41318 | -1.16654 | 17732 ft | 360 kts | 147° |
| 2026-04-23 14:21 | 51.39130 | -1.14657 | 18354 ft | 365 kts | 148° |
| 2026-04-23 14:21 | 51.36853 | -1.12800 | 18944 ft | 371 kts | 152° |
| 2026-04-23 14:22 | 51.34490 | -1.11066 | 19493 ft | 375 kts | 153° |
| 2026-04-23 14:22 | 51.32088 | -1.09352 | 20045 ft | 379 kts | 153° |
| 2026-04-23 14:22 | 51.29669 | -1.07612 | 20575 ft | 384 kts | 153° |
| 2026-04-23 14:22 | 51.27236 | -1.05844 | 21103 ft | 388 kts | 152° |
| 2026-04-23 14:23 | 51.24768 | -1.04043 | 21634 ft | 392 kts | 153° |
| 2026-04-23 14:23 | 51.22302 | -1.02247 | 22154 ft | 396 kts | 153° |
| 2026-04-23 14:23 | 51.19776 | -1.00410 | 22677 ft | 400 kts | 153° |
| 2026-04-23 14:23 | 51.17236 | -0.98565 | 23199 ft | 404 kts | 153° |
| 2026-04-23 14:24 | 51.14667 | -0.96702 | 23710 ft | 407 kts | 153° |
| 2026-04-23 14:24 | 51.12079 | -0.94827 | 24176 ft | 411 kts | 153° |
| 2026-04-23 14:24 | 51.09461 | -0.92934 | 24572 ft | 415 kts | 153° |
| 2026-04-23 14:24 | 51.06829 | -0.91031 | 24971 ft | 418 kts | 153° |
| 2026-04-23 14:25 | 51.04199 | -0.89133 | 25369 ft | 422 kts | 153° |
| 2026-04-23 14:25 | 51.01526 | -0.87206 | 25762 ft | 425 kts | 154° |
| 2026-04-23 14:25 | 50.98825 | -0.85261 | 26166 ft | 428 kts | 153° |
| 2026-04-23 14:25 | 50.96101 | -0.83302 | 26552 ft | 431 kts | 154° |
| 2026-04-23 14:26 | 50.93371 | -0.81341 | 26921 ft | 434 kts | 154° |
| 2026-04-23 14:26 | 50.90601 | -0.79353 | 27273 ft | 438 kts | 154° |
| 2026-04-23 14:26 | 50.87820 | -0.77362 | 27662 ft | 440 kts | 154° |
| 2026-04-23 14:26 | 50.85042 | -0.75282 | 28019 ft | 442 kts | 149° |
| 2026-04-23 14:27 | 50.82417 | -0.72746 | 28377 ft | 444 kts | 146° |
| 2026-04-23 14:27 | 50.79855 | -0.70117 | 28727 ft | 446 kts | 145° |
| 2026-04-23 14:27 | 50.77257 | -0.67418 | 29041 ft | 449 kts | 145° |
| 2026-04-23 14:27 | 50.74634 | -0.64699 | 29370 ft | 452 kts | 145° |
| 2026-04-23 14:28 | 50.71989 | -0.61974 | 29680 ft | 455 kts | 145° |
| 2026-04-23 14:28 | 50.69326 | -0.59252 | 29993 ft | 457 kts | 146° |
| 2026-04-23 14:28 | 50.66645 | -0.56527 | 30267 ft | 461 kts | 146° |
| 2026-04-23 14:28 | 50.63938 | -0.53786 | 30548 ft | 463 kts | 146° |
| 2026-04-23 14:29 | 50.61225 | -0.51046 | 30856 ft | 464 kts | 146° |
| 2026-04-23 14:29 | 50.58542 | -0.48342 | 31202 ft | 463 kts | 146° |
| 2026-04-23 14:29 | 50.55835 | -0.45618 | 31585 ft | 462 kts | 146° |
| 2026-04-23 14:29 | 50.53135 | -0.42902 | 31959 ft | 460 kts | 146° |
| 2026-04-23 14:30 | 50.50437 | -0.40193 | 32285 ft | 460 kts | 146° |
| 2026-04-23 14:30 | 50.47740 | -0.37487 | 32633 ft | 459 kts | 146° |
| 2026-04-23 14:30 | 50.45047 | -0.34788 | 32934 ft | 460 kts | 146° |
| 2026-04-23 14:30 | 50.42355 | -0.32096 | 33301 ft | 458 kts | 146° |
| 2026-04-23 14:31 | 50.39671 | -0.29414 | 33622 ft | 458 kts | 146° |
| 2026-04-23 14:31 | 50.36981 | -0.26730 | 33919 ft | 458 kts | 147° |
| 2026-04-23 14:31 | 50.34295 | -0.24053 | 34259 ft | 457 kts | 147° |
| 2026-04-23 14:31 | 50.31620 | -0.21390 | 34600 ft | 454 kts | 147° |
| 2026-04-23 14:32 | 50.28997 | -0.18783 | 34934 ft | 452 kts | 147° |
| 2026-04-23 14:32 | 50.26359 | -0.16164 | 35271 ft | 449 kts | 147° |
| 2026-04-23 14:32 | 50.21079 | -0.10933 | 35358 ft | 450 kts | 147° |
| 2026-04-23 14:33 | 50.15768 | -0.05684 | 35386 ft | 454 kts | 147° |
| 2026-04-23 14:33 | 50.10316 | -0.00570 | 35358 ft | 461 kts | 154° |
| 2026-04-23 14:34 | 50.04250 | 0.02481 | 35358 ft | 462 kts | 166° |
| 2026-04-23 14:34 | 49.97989 | 0.04802 | 35353 ft | 463 kts | 167° |
| 2026-04-23 14:35 | 49.91715 | 0.07179 | 35342 ft | 466 kts | 166° |
| 2026-04-23 14:35 | 49.85442 | 0.09622 | 35326 ft | 463 kts | 166° |
| 2026-04-23 14:36 | 49.79248 | 0.12043 | 35324 ft | 462 kts | 166° |
| 2026-04-23 14:36 | 49.73016 | 0.14470 | 35322 ft | 462 kts | 166° |
| 2026-04-23 14:37 | 49.66777 | 0.16897 | 35317 ft | 462 kts | 166° |
| 2026-04-23 14:37 | 49.60581 | 0.19402 | 35306 ft | 457 kts | 165° |
| 2026-04-23 14:38 | 49.54520 | 0.21874 | 35291 ft | 451 kts | 166° |
| 2026-04-23 14:38 | 49.48457 | 0.24329 | 35292 ft | 450 kts | 166° |
| 2026-04-23 14:39 | 49.42390 | 0.26771 | 35294 ft | 452 kts | 166° |
| 2026-04-23 14:39 | 49.36243 | 0.29238 | 35306 ft | 461 kts | 166° |
| 2026-04-23 14:40 | 49.30026 | 0.31733 | 35295 ft | 463 kts | 166° |
| 2026-04-23 14:40 | 49.23852 | 0.34314 | 35294 ft | 463 kts | 165° |
| 2026-04-23 14:41 | 49.17638 | 0.36947 | 35295 ft | 463 kts | 165° |
| 2026-04-23 14:41 | 49.11426 | 0.39562 | 35290 ft | 463 kts | 165° |
| 2026-04-23 14:42 | 49.05205 | 0.42163 | 35280 ft | 463 kts | 166° |
| 2026-04-23 14:42 | 48.98990 | 0.44752 | 35286 ft | 463 kts | 166° |
| 2026-04-23 14:43 | 48.93823 | 0.46900 | 35283 ft | 463 kts | 166° |
| 2026-04-23 14:43 | 48.86596 | 0.49899 | 35270 ft | 463 kts | 166° |
| 2026-04-23 14:44 | 48.80371 | 0.52474 | 35278 ft | 464 kts | 166° |
| 2026-04-23 14:44 | 48.75188 | 0.54568 | 35271 ft | 464 kts | 167° |
| 2026-04-23 14:45 | 48.67921 | 0.57386 | 35266 ft | 464 kts | 167° |
| 2026-04-23 14:45 | 48.61653 | 0.59820 | 35268 ft | 465 kts | 167° |
| 2026-04-23 14:46 | 48.56438 | 0.61852 | 35265 ft | 466 kts | 167° |
| 2026-04-23 14:46 | 48.50160 | 0.64304 | 35262 ft | 467 kts | 166° |
| 2026-04-23 14:47 | 48.43881 | 0.66859 | 35262 ft | 468 kts | 166° |
| 2026-04-23 14:47 | 48.37597 | 0.69427 | 35254 ft | 469 kts | 166° |
| 2026-04-23 14:48 | 48.31294 | 0.71981 | 35247 ft | 469 kts | 166° |
| 2026-04-23 14:48 | 48.25023 | 0.74510 | 35250 ft | 470 kts | 166° |
| 2026-04-23 14:49 | 48.18698 | 0.77016 | 35253 ft | 470 kts | 167° |
| 2026-04-23 14:49 | 48.12365 | 0.79499 | 35239 ft | 471 kts | 167° |
| 2026-04-23 14:50 | 48.06019 | 0.81985 | 35244 ft | 471 kts | 167° |
| 2026-04-23 14:50 | 47.99713 | 0.84455 | 35239 ft | 472 kts | 167° |
| 2026-04-23 14:51 | 47.93366 | 0.86934 | 35232 ft | 472 kts | 167° |
| 2026-04-23 14:51 | 47.87016 | 0.89410 | 35222 ft | 472 kts | 167° |
| 2026-04-23 14:52 | 47.80664 | 0.91877 | 35231 ft | 472 kts | 167° |
| 2026-04-23 14:52 | 47.74357 | 0.94316 | 35209 ft | 472 kts | 167° |
| 2026-04-23 14:53 | 47.67999 | 0.96769 | 35222 ft | 472 kts | 167° |
| 2026-04-23 14:53 | 47.61648 | 0.99215 | 35221 ft | 471 kts | 167° |
| 2026-04-23 14:54 | 47.55300 | 1.01653 | 35213 ft | 471 kts | 167° |
| 2026-04-23 14:54 | 47.48991 | 1.04071 | 35211 ft | 471 kts | 167° |
| 2026-04-23 14:55 | 47.42615 | 1.06258 | 35202 ft | 469 kts | 175° |
| 2026-04-23 14:55 | 47.36154 | 1.06418 | 35208 ft | 464 kts | 185° |
| 2026-04-23 14:56 | 47.29693 | 1.06151 | 35208 ft | 464 kts | 185° |
| 2026-04-23 14:56 | 47.23229 | 1.05954 | 35199 ft | 465 kts | 184° |
| 2026-04-23 14:57 | 47.16793 | 1.05810 | 35190 ft | 466 kts | 184° |
| 2026-04-23 14:57 | 47.10312 | 1.05671 | 35186 ft | 466 kts | 184° |
| 2026-04-23 14:58 | 47.03824 | 1.05527 | 35184 ft | 466 kts | 184° |
| 2026-04-23 14:58 | 46.97338 | 1.05313 | 35178 ft | 466 kts | 185° |
| 2026-04-23 14:59 | 46.90902 | 1.05012 | 35178 ft | 466 kts | 185° |
| 2026-04-23 14:59 | 46.84423 | 1.04714 | 35172 ft | 466 kts | 185° |
| 2026-04-23 15:00 | 46.77946 | 1.04430 | 35173 ft | 466 kts | 185° |
| 2026-04-23 15:00 | 46.71470 | 1.04152 | 35159 ft | 466 kts | 185° |
| 2026-04-23 15:01 | 46.65041 | 1.03876 | 35162 ft | 465 kts | 185° |
| 2026-04-23 15:01 | 46.58567 | 1.03599 | 35158 ft | 465 kts | 185° |
| 2026-04-23 15:02 | 46.52106 | 1.03322 | 35150 ft | 464 kts | 185° |
| 2026-04-23 15:02 | 46.45641 | 1.03176 | 35159 ft | 464 kts | 184° |
| 2026-04-23 15:03 | 46.39186 | 1.03146 | 35157 ft | 464 kts | 183° |
| 2026-04-23 15:03 | 46.32775 | 1.03107 | 35149 ft | 464 kts | 184° |
| 2026-04-23 15:04 | 46.26321 | 1.03048 | 35144 ft | 463 kts | 184° |
| 2026-04-23 15:04 | 46.19879 | 1.02983 | 35141 ft | 463 kts | 184° |
| 2026-04-23 15:05 | 46.13443 | 1.02917 | 35144 ft | 462 kts | 184° |
| 2026-04-23 15:05 | 46.07069 | 1.02853 | 35147 ft | 461 kts | 184° |
| 2026-04-23 15:06 | 46.00656 | 1.02789 | 35152 ft | 460 kts | 184° |
| 2026-04-23 15:06 | 45.94256 | 1.02726 | 35154 ft | 460 kts | 184° |
| 2026-04-23 15:07 | 45.87866 | 1.02662 | 35153 ft | 459 kts | 184° |
| 2026-04-23 15:07 | 45.81528 | 1.02670 | 35150 ft | 460 kts | 179° |
| 2026-04-23 15:08 | 45.75189 | 1.04067 | 35151 ft | 462 kts | 172° |
| 2026-04-23 15:09 | 45.65729 | 1.06641 | 35146 ft | 461 kts | 172° |
| 2026-04-23 15:09 | 45.59420 | 1.08285 | 35135 ft | 461 kts | 172° |
| 2026-04-23 15:10 | 45.53108 | 1.09894 | 35130 ft | 461 kts | 172° |
| 2026-04-23 15:10 | 45.46838 | 1.11484 | 35128 ft | 461 kts | 172° |
| 2026-04-23 15:11 | 45.40518 | 1.13086 | 35124 ft | 461 kts | 172° |
| 2026-04-23 15:11 | 45.34202 | 1.14685 | 35123 ft | 461 kts | 172° |
| 2026-04-23 15:12 | 45.27877 | 1.16284 | 35116 ft | 462 kts | 172° |
| 2026-04-23 15:12 | 45.21594 | 1.17868 | 35123 ft | 462 kts | 172° |
| 2026-04-23 15:13 | 45.15250 | 1.18915 | 35138 ft | 457 kts | 184° |
| 2026-04-23 15:13 | 45.09015 | 1.17705 | 35149 ft | 451 kts | 194° |
| 2026-04-23 15:14 | 45.02853 | 1.16026 | 35145 ft | 451 kts | 194° |
| 2026-04-23 15:14 | 44.96702 | 1.14389 | 35130 ft | 452 kts | 194° |
| 2026-04-23 15:15 | 44.90566 | 1.12806 | 35130 ft | 451 kts | 194° |
| 2026-04-23 15:15 | 44.84387 | 1.11232 | 35121 ft | 451 kts | 194° |
| 2026-04-23 15:16 | 44.78208 | 1.09663 | 35118 ft | 451 kts | 194° |
| 2026-04-23 15:16 | 44.72037 | 1.08099 | 35116 ft | 451 kts | 194° |
| 2026-04-23 15:17 | 44.65899 | 1.06544 | 35112 ft | 451 kts | 194° |
| 2026-04-23 15:17 | 44.59733 | 1.04986 | 35119 ft | 450 kts | 194° |
| 2026-04-23 15:18 | 44.53563 | 1.03431 | 35109 ft | 450 kts | 194° |
| 2026-04-23 15:18 | 44.47402 | 1.01882 | 35114 ft | 450 kts | 194° |
| 2026-04-23 15:19 | 44.41239 | 1.00334 | 35111 ft | 450 kts | 194° |
| 2026-04-23 15:19 | 44.35125 | 0.98802 | 35110 ft | 449 kts | 194° |
| 2026-04-23 15:20 | 44.28970 | 0.97264 | 35106 ft | 449 kts | 194° |
| 2026-04-23 15:20 | 44.22820 | 0.95730 | 35108 ft | 449 kts | 194° |
| 2026-04-23 15:21 | 44.16676 | 0.94201 | 35103 ft | 448 kts | 194° |
| 2026-04-23 15:21 | 44.10540 | 0.92677 | 35109 ft | 447 kts | 193° |
| 2026-04-23 15:22 | 44.04455 | 0.91168 | 35102 ft | 447 kts | 194° |
| 2026-04-23 15:22 | 43.98335 | 0.89654 | 35094 ft | 446 kts | 194° |
| 2026-04-23 15:23 | 43.92235 | 0.88147 | 35106 ft | 446 kts | 194° |
| 2026-04-23 15:23 | 43.86130 | 0.86620 | 35101 ft | 445 kts | 194° |
| 2026-04-23 15:24 | 43.80053 | 0.84988 | 35099 ft | 445 kts | 195° |
| 2026-04-23 15:24 | 43.74036 | 0.83355 | 35101 ft | 444 kts | 195° |
| 2026-04-23 15:25 | 43.67959 | 0.81720 | 35100 ft | 444 kts | 195° |
| 2026-04-23 15:25 | 43.61897 | 0.80101 | 35099 ft | 444 kts | 195° |
| 2026-04-23 15:26 | 43.55838 | 0.78488 | 35096 ft | 443 kts | 194° |
| 2026-04-23 15:26 | 43.49824 | 0.76891 | 35094 ft | 443 kts | 194° |
| 2026-04-23 15:27 | 43.43771 | 0.75286 | 35096 ft | 443 kts | 195° |
| 2026-04-23 15:27 | 43.37718 | 0.73684 | 35087 ft | 443 kts | 195° |
| 2026-04-23 15:28 | 43.31673 | 0.72088 | 35085 ft | 442 kts | 195° |
| 2026-04-23 15:28 | 43.25635 | 0.70497 | 35080 ft | 442 kts | 194° |
| 2026-04-23 15:29 | 43.19644 | 0.68921 | 35084 ft | 441 kts | 195° |
| 2026-04-23 15:29 | 43.13616 | 0.67339 | 35084 ft | 441 kts | 195° |
| 2026-04-23 15:30 | 43.07596 | 0.65762 | 35089 ft | 440 kts | 195° |
| 2026-04-23 15:30 | 43.01587 | 0.64190 | 35089 ft | 440 kts | 195° |
| 2026-04-23 15:31 | 42.95624 | 0.62635 | 35096 ft | 439 kts | 194° |
| 2026-04-23 15:31 | 42.89623 | 0.61072 | 35103 ft | 438 kts | 194° |
| 2026-04-23 15:32 | 42.83641 | 0.59517 | 35127 ft | 437 kts | 194° |
| 2026-04-23 15:32 | 42.77658 | 0.57964 | 35130 ft | 438 kts | 194° |
| 2026-04-23 15:33 | 42.71707 | 0.56423 | 35139 ft | 439 kts | 195° |
| 2026-04-23 15:33 | 42.65985 | 0.53850 | 35148 ft | 431 kts | 209° |
| 2026-04-23 15:34 | 42.60585 | 0.50325 | 35147 ft | 430 kts | 210° |
| 2026-04-23 15:34 | 42.55189 | 0.46799 | 35151 ft | 431 kts | 210° |
| 2026-04-23 15:35 | 42.49769 | 0.43317 | 35152 ft | 431 kts | 209° |
| 2026-04-23 15:35 | 42.44378 | 0.39883 | 35150 ft | 432 kts | 209° |
| 2026-04-23 15:36 | 42.38929 | 0.36423 | 35143 ft | 432 kts | 209° |
| 2026-04-23 15:36 | 42.33483 | 0.32971 | 35146 ft | 432 kts | 209° |
| 2026-04-23 15:37 | 42.28037 | 0.29523 | 35134 ft | 432 kts | 209° |
| 2026-04-23 15:37 | 42.22630 | 0.26107 | 35138 ft | 432 kts | 209° |
| 2026-04-23 15:38 | 42.17188 | 0.22675 | 35123 ft | 431 kts | 209° |
| 2026-04-23 15:38 | 42.11757 | 0.19256 | 35119 ft | 430 kts | 209° |
| 2026-04-23 15:39 | 42.06318 | 0.16068 | 35123 ft | 432 kts | 201° |
| 2026-04-23 15:39 | 42.00368 | 0.14667 | 35130 ft | 436 kts | 190° |
| 2026-04-23 15:40 | 41.94329 | 0.13846 | 35116 ft | 436 kts | 189° |
| 2026-04-23 15:40 | 41.88308 | 0.13011 | 35122 ft | 435 kts | 189° |
| 2026-04-23 15:41 | 41.82292 | 0.12130 | 35121 ft | 434 kts | 190° |
| 2026-04-23 15:41 | 41.76330 | 0.11240 | 35115 ft | 434 kts | 190° |
| 2026-04-23 15:42 | 41.70327 | 0.10342 | 35129 ft | 434 kts | 190° |
| 2026-04-23 15:42 | 41.64321 | 0.09446 | 35120 ft | 434 kts | 190° |
| 2026-04-23 15:43 | 41.58307 | 0.08552 | 35127 ft | 435 kts | 190° |
| 2026-04-23 15:43 | 41.52295 | 0.07659 | 35122 ft | 435 kts | 190° |
| 2026-04-23 15:44 | 41.46314 | 0.06774 | 35117 ft | 435 kts | 190° |
| 2026-04-23 15:44 | 41.40291 | 0.05884 | 35122 ft | 435 kts | 190° |
| 2026-04-23 15:45 | 41.34269 | 0.04995 | 35124 ft | 435 kts | 190° |
| 2026-04-23 15:45 | 41.28255 | 0.04109 | 35115 ft | 435 kts | 190° |
| 2026-04-23 15:46 | 41.22284 | 0.03231 | 35122 ft | 434 kts | 190° |
| 2026-04-23 15:46 | 41.16281 | 0.02350 | 35109 ft | 434 kts | 190° |
| 2026-04-23 15:47 | 41.10289 | 0.01473 | 35121 ft | 433 kts | 190° |
| 2026-04-23 15:47 | 41.04310 | 0.00601 | 35117 ft | 433 kts | 189° |
| 2026-04-23 15:48 | 40.98325 | -0.00267 | 35116 ft | 432 kts | 189° |
| 2026-04-23 15:48 | 40.92398 | -0.01126 | 35119 ft | 431 kts | 189° |
| 2026-04-23 15:49 | 40.86439 | -0.01988 | 35132 ft | 430 kts | 189° |
| 2026-04-23 15:49 | 40.80493 | -0.02847 | 35132 ft | 430 kts | 189° |
| 2026-04-23 15:50 | 40.74549 | -0.03705 | 35139 ft | 429 kts | 189° |
| 2026-04-23 15:50 | 40.68652 | -0.04554 | 35140 ft | 429 kts | 189° |
| 2026-04-23 15:51 | 40.62715 | -0.05408 | 35139 ft | 429 kts | 189° |
| 2026-04-23 15:51 | 40.56779 | -0.06266 | 35127 ft | 429 kts | 191° |
| 2026-04-23 15:52 | 40.51038 | -0.08145 | 35097 ft | 425 kts | 200° |
| 2026-04-23 15:52 | 40.45395 | -0.10463 | 35075 ft | 425 kts | 200° |
| 2026-04-23 15:53 | 40.39765 | -0.12728 | 35053 ft | 426 kts | 200° |
| 2026-04-23 15:53 | 40.34093 | -0.14965 | 35032 ft | 426 kts | 200° |
| 2026-04-23 15:54 | 40.28414 | -0.17195 | 35032 ft | 426 kts | 199° |
| 2026-04-23 15:54 | 40.22746 | -0.19423 | 35038 ft | 425 kts | 200° |
| 2026-04-23 15:55 | 40.17127 | -0.21646 | 35071 ft | 425 kts | 200° |
| 2026-04-23 15:55 | 40.11471 | -0.23881 | 35086 ft | 424 kts | 200° |
| 2026-04-23 15:56 | 40.05847 | -0.26097 | 35097 ft | 416 kts | 200° |
| 2026-04-23 15:56 | 40.00371 | -0.28251 | 35131 ft | 409 kts | 200° |
| 2026-04-23 15:57 | 39.94903 | -0.30370 | 34918 ft | 413 kts | 199° |
| 2026-04-23 15:57 | 39.92200 | -0.31407 | 34638 ft | 408 kts | 199° |
| 2026-04-23 15:57 | 39.89495 | -0.32445 | 34256 ft | 405 kts | 199° |
| 2026-04-23 15:57 | 39.86805 | -0.33484 | 33840 ft | 401 kts | 199° |
| 2026-04-23 15:58 | 39.84140 | -0.34521 | 33435 ft | 398 kts | 200° |
| 2026-04-23 15:58 | 39.81499 | -0.35550 | 33035 ft | 395 kts | 199° |
| 2026-04-23 15:58 | 39.80612 | -0.35896 | 32903 ft | 394 kts | 199° |
| 2026-04-23 15:58 | 39.78375 | -0.36767 | 32584 ft | 391 kts | 200° |
| 2026-04-23 15:59 | 39.75780 | -0.37778 | 32214 ft | 388 kts | 199° |
| 2026-04-23 15:59 | 39.73207 | -0.38778 | 31847 ft | 385 kts | 199° |
| 2026-04-23 15:59 | 39.70686 | -0.39756 | 31489 ft | 382 kts | 199° |
| 2026-04-23 15:59 | 39.68150 | -0.40740 | 31137 ft | 379 kts | 199° |
| 2026-04-23 16:00 | 39.65627 | -0.41717 | 30774 ft | 377 kts | 199° |
| 2026-04-23 16:00 | 39.63122 | -0.42689 | 30425 ft | 375 kts | 199° |
| 2026-04-23 16:00 | 39.60629 | -0.43654 | 30055 ft | 373 kts | 199° |
| 2026-04-23 16:00 | 39.58141 | -0.44615 | 29650 ft | 371 kts | 199° |
| 2026-04-23 16:01 | 39.55682 | -0.45564 | 29269 ft | 367 kts | 199° |
| 2026-04-23 16:01 | 39.53247 | -0.46505 | 28904 ft | 364 kts | 199° |
| 2026-04-23 16:01 | 39.50826 | -0.47439 | 28536 ft | 361 kts | 199° |
| 2026-04-23 16:01 | 39.48442 | -0.48260 | 28171 ft | 360 kts | 193° |
| 2026-04-23 16:02 | 39.45955 | -0.48613 | 27804 ft | 359 kts | 186° |
| 2026-04-23 16:02 | 39.43466 | -0.48797 | 27423 ft | 358 kts | 186° |
| 2026-04-23 16:02 | 39.40981 | -0.48948 | 27060 ft | 357 kts | 185° |
| 2026-04-23 16:02 | 39.38503 | -0.49095 | 26708 ft | 357 kts | 185° |
| 2026-04-23 16:03 | 39.36006 | -0.49252 | 26363 ft | 361 kts | 186° |
| 2026-04-23 16:03 | 39.33484 | -0.49419 | 26006 ft | 363 kts | 186° |
| 2026-04-23 16:03 | 39.31002 | -0.49588 | 25648 ft | 362 kts | 186° |
| 2026-04-23 16:03 | 39.28491 | -0.49762 | 25283 ft | 360 kts | 186° |
| 2026-04-23 16:04 | 39.26001 | -0.49938 | 24923 ft | 358 kts | 186° |
| 2026-04-23 16:04 | 39.23519 | -0.50115 | 24580 ft | 356 kts | 186° |
| 2026-04-23 16:04 | 39.21053 | -0.50292 | 24219 ft | 355 kts | 186° |
| 2026-04-23 16:04 | 39.18590 | -0.50469 | 23860 ft | 354 kts | 186° |
| 2026-04-23 16:05 | 39.16962 | -0.50586 | 23606 ft | 353 kts | 186° |
| 2026-04-23 16:05 | 39.13693 | -0.50821 | 23048 ft | 350 kts | 186° |
| 2026-04-23 16:05 | 39.11269 | -0.50995 | 22672 ft | 348 kts | 186° |
| 2026-04-23 16:05 | 39.08889 | -0.51166 | 22304 ft | 345 kts | 186° |
| 2026-04-23 16:06 | 39.06499 | -0.51337 | 21929 ft | 343 kts | 186° |
| 2026-04-23 16:06 | 39.04129 | -0.51507 | 21582 ft | 340 kts | 186° |
| 2026-04-23 16:06 | 39.01772 | -0.51675 | 21224 ft | 338 kts | 186° |
| 2026-04-23 16:06 | 38.99431 | -0.51843 | 20872 ft | 336 kts | 186° |
| 2026-04-23 16:07 | 38.97110 | -0.52010 | 20523 ft | 333 kts | 186° |
| 2026-04-23 16:07 | 38.94799 | -0.52175 | 20185 ft | 331 kts | 186° |
| 2026-04-23 16:07 | 38.92504 | -0.52340 | 19835 ft | 330 kts | 186° |
| 2026-04-23 16:07 | 38.90252 | -0.52501 | 19504 ft | 328 kts | 186° |
| 2026-04-23 16:08 | 38.87980 | -0.52664 | 19161 ft | 326 kts | 186° |
| 2026-04-23 16:08 | 38.85721 | -0.52825 | 18831 ft | 325 kts | 186° |
| 2026-04-23 16:08 | 38.83469 | -0.52986 | 18510 ft | 323 kts | 186° |
| 2026-04-23 16:08 | 38.81230 | -0.53146 | 18168 ft | 322 kts | 186° |
| 2026-04-23 16:09 | 38.79001 | -0.53305 | 17796 ft | 320 kts | 186° |
| 2026-04-23 16:09 | 38.76776 | -0.53464 | 17449 ft | 318 kts | 186° |
| 2026-04-23 16:09 | 38.74574 | -0.53621 | 17122 ft | 316 kts | 186° |
| 2026-04-23 16:09 | 38.72411 | -0.53775 | 16806 ft | 314 kts | 186° |
| 2026-04-23 16:10 | 38.70238 | -0.53929 | 16485 ft | 312 kts | 186° |
| 2026-04-23 16:10 | 38.68080 | -0.54082 | 16181 ft | 309 kts | 186° |
| 2026-04-23 16:10 | 38.65937 | -0.54233 | 15871 ft | 307 kts | 187° |
| 2026-04-23 16:10 | 38.63815 | -0.54385 | 15564 ft | 305 kts | 186° |
| 2026-04-23 16:11 | 38.61698 | -0.54537 | 15270 ft | 304 kts | 186° |
| 2026-04-23 16:11 | 38.59592 | -0.54686 | 14964 ft | 302 kts | 186° |
| 2026-04-23 16:11 | 38.57498 | -0.54834 | 14667 ft | 301 kts | 186° |
| 2026-04-23 16:11 | 38.55410 | -0.54981 | 14392 ft | 300 kts | 186° |
| 2026-04-23 16:12 | 38.53356 | -0.55127 | 14091 ft | 300 kts | 186° |
| 2026-04-23 16:12 | 38.51274 | -0.55275 | 13746 ft | 299 kts | 186° |
| 2026-04-23 16:12 | 38.49205 | -0.55420 | 13424 ft | 297 kts | 186° |
| 2026-04-23 16:12 | 38.47145 | -0.55566 | 13092 ft | 296 kts | 185° |
| 2026-04-23 16:13 | 38.45094 | -0.55710 | 12768 ft | 295 kts | 185° |
| 2026-04-23 16:13 | 38.41013 | -0.56001 | 12149 ft | 292 kts | 185° |
| 2026-04-23 16:13 | 38.38990 | -0.56142 | 11838 ft | 291 kts | 185° |
| 2026-04-23 16:14 | 38.36999 | -0.56282 | 11533 ft | 290 kts | 185° |
| 2026-04-23 16:14 | 38.34992 | -0.56423 | 11228 ft | 289 kts | 184° |
| 2026-04-23 16:14 | 38.32992 | -0.56564 | 10924 ft | 287 kts | 185° |
| 2026-04-23 16:14 | 38.31001 | -0.56704 | 10619 ft | 286 kts | 184° |
| 2026-04-23 16:15 | 38.29014 | -0.56849 | 10316 ft | 285 kts | 187° |
| 2026-04-23 16:15 | 38.27150 | -0.57552 | 10150 ft | 277 kts | 209° |
| 2026-04-23 16:15 | 38.25670 | -0.59051 | 9973 ft | 272 kts | 230° |
| 2026-04-23 16:15 | 38.24559 | -0.60994 | 9676 ft | 272 kts | 234° |
| 2026-04-23 16:16 | 38.23491 | -0.62975 | 9376 ft | 271 kts | 234° |
| 2026-04-23 16:16 | 38.22411 | -0.64935 | 9066 ft | 270 kts | 229° |
| 2026-04-23 16:16 | 38.20984 | -0.66395 | 8792 ft | 267 kts | 206° |
| 2026-04-23 16:16 | 38.19237 | -0.67181 | 8517 ft | 266 kts | 196° |
| 2026-04-23 16:17 | 38.17456 | -0.67817 | 8223 ft | 266 kts | 195° |
| 2026-04-23 16:17 | 38.15675 | -0.68451 | 7931 ft | 265 kts | 196° |
| 2026-04-23 16:17 | 38.14027 | -0.69459 | 7623 ft | 265 kts | 217° |
| 2026-04-23 16:17 | 38.12690 | -0.71072 | 7365 ft | 265 kts | 224° |
| 2026-04-23 16:18 | 38.11400 | -0.72742 | 7077 ft | 264 kts | 224° |
| 2026-04-23 16:18 | 38.10109 | -0.74405 | 6797 ft | 264 kts | 223° |
| 2026-04-23 16:18 | 38.08831 | -0.76039 | 6523 ft | 265 kts | 223° |
| 2026-04-23 16:18 | 38.07532 | -0.77691 | 6222 ft | 265 kts | 223° |
| 2026-04-23 16:19 | 38.06228 | -0.79336 | 5914 ft | 264 kts | 223° |
| 2026-04-23 16:19 | 38.04926 | -0.80982 | 5593 ft | 265 kts | 223° |
| 2026-04-23 16:19 | 38.03615 | -0.82636 | 5264 ft | 266 kts | 223° |
| 2026-04-23 16:19 | 38.02297 | -0.84301 | 4948 ft | 268 kts | 223° |
| 2026-04-23 16:20 | 38.00976 | -0.85968 | 4650 ft | 268 kts | 223° |
| 2026-04-23 16:20 | 37.99654 | -0.87635 | 4445 ft | 266 kts | 223° |
| 2026-04-23 16:20 | 37.98357 | -0.89271 | 4310 ft | 260 kts | 221° |
| 2026-04-23 16:20 | 37.97104 | -0.90846 | 4200 ft | 256 kts | 222° |
| 2026-04-23 16:21 | 37.95844 | -0.92432 | 4117 ft | 254 kts | 222° |
| 2026-04-23 16:21 | 37.94604 | -0.94020 | 3872 ft | 254 kts | 222° |
| 2026-04-23 16:21 | 37.93372 | -0.95614 | 3641 ft | 253 kts | 223° |
| 2026-04-23 16:21 | 37.92139 | -0.97213 | 3406 ft | 254 kts | 222° |
| 2026-04-23 16:22 | 37.90896 | -0.98817 | 3144 ft | 256 kts | 222° |
| 2026-04-23 16:22 | 37.89671 | -1.00396 | 2983 ft | 247 kts | 223° |
| 2026-04-23 16:22 | 37.88492 | -1.01920 | 2685 ft | 236 kts | 223° |
| 2026-04-23 16:22 | 37.87388 | -1.03344 | 2405 ft | 224 kts | 222° |
| 2026-04-23 16:23 | 37.86324 | -1.04718 | 2108 ft | 213 kts | 221° |
| 2026-04-23 16:23 | 37.85313 | -1.06020 | 1836 ft | 203 kts | 221° |
| 2026-04-23 16:23 | 37.84358 | -1.07256 | 1564 ft | 189 kts | 221° |
| 2026-04-23 16:23 | 37.83475 | -1.08393 | 1306 ft | 175 kts | 222° |
| 2026-04-23 16:24 | 37.82635 | -1.09480 | 1085 ft | 172 kts | 222° |
| 2026-04-23 16:24 | 37.81807 | -1.10547 | 830 ft | 169 kts | 220° |
| 2026-04-23 16:24 | 37.80995 | -1.11583 | 647 ft | 159 kts | 220° |
| 2026-04-23 16:24 | 37.80294 | -1.12470 | 646 ft | 116 kts | 227° |
| 2026-04-23 16:25 | 37.80000 | -1.12880 | 644 ft | 61 kts | 229° |
| 2026-04-23 16:25 | 37.79894 | -1.13159 | 648 ft | 10 kts | 255° |
| 2026-04-23 16:25 | 37.79905 | -1.13240 | 650 ft | 7 kts | 317° |
| 2026-04-23 16:25 | 37.79956 | -1.13241 | 650 ft | 8 kts | 29° |
| 2026-04-23 16:26 | 37.79998 | -1.13193 | 647 ft | 8 kts | 44° |
| 2026-04-23 16:26 | 37.80038 | -1.13143 | 647 ft | 8 kts | 45° |
| 2026-04-23 16:26 | 37.80074 | -1.13098 | 647 ft | 5 kts | 39° |
| 2026-04-23 16:26 | 37.80087 | -1.13090 | 647 ft | 2 kts | 22° |
| 2026-04-23 16:27 | 37.80122 | -1.13094 | 646 ft | 8 kts | 334° |
| 2026-04-23 16:27 | 37.80165 | -1.13148 | 646 ft | 8 kts | 311° |
| 2026-04-23 16:27 | 37.80205 | -1.13161 | 646 ft | 6 kts | 18° |
| 2026-04-23 16:27 | 37.80240 | -1.13128 | 646 ft | 6 kts | 43° |
| 2026-04-23 16:28 | 37.80273 | -1.13087 | 646 ft | 8 kts | 45° |
| 2026-04-23 16:28 | 37.80293 | -1.13064 | 646 ft | 3 kts | 26° |
| 2026-04-23 16:28 | 37.80313 | -1.13072 | 646 ft | 3 kts | 326° |
| 2026-04-23 16:28 | 37.80329 | -1.13091 | 646 ft | 3 kts | 316° |
| 2026-04-23 16:29 | 37.80344 | -1.13110 | 646 ft | 3 kts | 315° |
| 2026-04-23 16:29 | 37.80353 | -1.13122 | 646 ft | 1 kts | 315° |
| 2026-04-23 16:29 | 37.80354 | -1.13123 | 646 ft | 0 kts | 315° |